Time;durP1;ratioP1;P1;durP2;ratioP2;P2;SDS_P1;SDS_P2;PMS_P1;PMS_P2;Temp;Humidity;BMP_temperature;BMP_pressure;BME280_temperature;BME280_humidity;BME280_pressure;Samples;Min_cycle;Max_cycle;Signal;HPM_P1;HPM_P2
2022/09/13 00:00:41;;;;;;;3.60;3.20;;;13.50;99.90;;;;;;5013363;28;20547;-73
2022/09/13 00:03:09;;;;;;;4.87;3.83;;;13.50;99.90;;;;;;5013539;28;20548;-73
2022/09/13 00:05:35;;;;;;;4.87;4.30;;;13.40;99.90;;;;;;5013655;28;20461;-72
2022/09/13 00:08:01;;;;;;;4.33;3.73;;;13.40;99.90;;;;;;5007556;28;20437;-73
2022/09/13 00:10:27;;;;;;;4.60;3.80;;;13.40;99.90;;;;;;5013384;28;20428;-72
2022/09/13 00:12:53;;;;;;;3.83;3.43;;;13.40;99.90;;;;;;5010146;28;20593;-72
2022/09/13 00:15:19;;;;;;;3.50;3.20;;;13.40;99.90;;;;;;5013323;28;20225;-72
2022/09/13 00:17:45;;;;;;;3.90;3.60;;;13.40;99.90;;;;;;5009944;28;20874;-72
2022/09/13 00:20:10;;;;;;;9.50;3.33;;;13.40;99.90;;;;;;5011772;28;20433;-72
2022/09/13 00:22:36;;;;;;;4.27;3.97;;;13.40;99.90;;;;;;5008033;28;20219;-72
2022/09/13 00:25:04;;;;;;;4.23;3.63;;;13.50;99.90;;;;;;5013229;28;20175;-72
2022/09/13 00:27:31;;;;;;;4.60;3.20;;;13.50;99.90;;;;;;5013054;28;20221;-72
2022/09/13 00:29:56;;;;;;;4.30;3.20;;;13.40;99.90;;;;;;5013135;28;20421;-72
2022/09/13 00:32:22;;;;;;;6.03;3.50;;;13.40;99.90;;;;;;5008172;28;20836;-72
2022/09/13 00:34:47;;;;;;;3.27;2.97;;;13.40;99.90;;;;;;5008896;28;20179;-72
2022/09/13 00:37:13;;;;;;;3.80;3.33;;;13.40;99.90;;;;;;5005707;28;20187;-71
2022/09/13 00:39:39;;;;;;;3.00;2.80;;;13.30;99.90;;;;;;5011689;28;20190;-74
2022/09/13 00:42:04;;;;;;;3.63;3.33;;;13.30;99.90;;;;;;5012584;28;20328;-72
2022/09/13 00:44:54;;;;;;;4.20;3.90;;;13.30;99.90;;;;;;5012805;28;20643;-72
2022/09/13 00:47:24;;;;;;;4.30;3.37;;;13.30;99.90;;;;;;5008749;28;20219;-73
2022/09/13 00:49:54;;;;;;;3.23;3.00;;;13.30;99.90;;;;;;5008825;28;20441;-72
2022/09/13 00:52:23;;;;;;;3.57;3.27;;;13.30;99.90;;;;;;5009888;28;20503;-72
2022/09/13 00:54:55;;;;;;;5.70;2.80;;;13.20;99.90;;;;;;5009602;28;20818;-72
2022/09/13 00:57:23;;;;;;;4.23;2.60;;;13.20;99.90;;;;;;5012510;28;20416;-72
2022/09/13 00:59:58;;;;;;;3.20;2.30;;;13.20;99.90;;;;;;5011584;28;20757;-73
2022/09/13 02:33:07;;;;;;;3.83;2.13;;;12.40;99.90;;;;;;5087886;22;20509;-75
2022/09/13 02:35:50;;;;;;;3.00;2.80;;;12.40;99.90;;;;;;5008368;28;20437;-74
2022/09/13 02:38:26;;;;;;;2.30;2.10;;;12.40;99.90;;;;;;5026229;28;20837;-74
2022/09/13 02:41:08;;;;;;;3.13;2.10;;;12.30;99.90;;;;;;5031332;28;20408;-75
2022/09/13 02:43:41;;;;;;;2.70;2.50;;;12.30;99.90;;;;;;5026003;28;20432;-74
2022/09/13 02:46:15;;;;;;;2.67;2.47;;;12.30;99.90;;;;;;5027655;28;20822;-74
2022/09/13 02:49:10;;;;;;;3.27;2.40;;;12.30;99.90;;;;;;5028455;28;20948;-74
2022/09/13 02:52:04;;;;;;;3.53;2.43;;;12.30;99.90;;;;;;5025927;28;21035;-74
2022/09/13 02:54:43;;;;;;;2.37;1.90;;;12.30;99.90;;;;;;5031286;28;20409;-73
2022/09/13 02:57:26;;;;;;;3.07;2.23;;;12.20;99.90;;;;;;5030791;28;20419;-74
2022/09/13 02:59:51;;;;;;;1.80;1.70;;;12.20;99.90;;;;;;5008991;28;20574;-73
2022/09/13 03:02:20;;;;;;;2.47;2.27;;;12.20;99.90;;;;;;5014929;28;20524;-74
2022/09/13 03:04:48;;;;;;;5.63;2.23;;;12.20;99.90;;;;;;5014798;28;20241;-73
2022/09/13 03:07:14;;;;;;;4.47;2.60;;;12.20;99.90;;;;;;5012714;28;20466;-74
2022/09/13 03:09:52;;;;;;;3.17;2.87;;;12.20;99.90;;;;;;5015120;28;20456;-74
2022/09/13 03:12:42;;;;;;;10.20;2.10;;;12.20;99.90;;;;;;5012025;28;20452;-74
2022/09/13 03:15:19;;;;;;;3.47;2.33;;;12.10;99.90;;;;;;5017505;28;20441;-72
2022/09/13 03:18:06;;;;;;;3.97;2.37;;;12.10;99.90;;;;;;5034929;28;20905;-73
2022/09/13 03:20:47;;;;;;;4.03;2.70;;;12.10;99.90;;;;;;5031713;28;21128;-73
2022/09/13 03:23:29;;;;;;;3.50;2.17;;;12.10;99.90;;;;;;5006483;28;20483;-74
2022/09/13 03:26:22;;;;;;;3.20;2.57;;;12.10;99.90;;;;;;5034437;28;20456;-73
2022/09/13 03:29:00;;;;;;;3.10;2.20;;;12.10;99.90;;;;;;5034437;28;20983;-71
2022/09/13 03:31:31;;;;;;;3.90;2.53;;;12.10;99.90;;;;;;5027808;28;20456;-71
2022/09/13 03:34:06;;;;;;;7.30;2.73;;;12.10;99.90;;;;;;5018735;28;20468;-72
2022/09/13 03:36:47;;;;;;;4.60;2.47;;;12.00;99.90;;;;;;5012333;28;20433;-71
2022/09/13 03:39:33;;;;;;;6.07;2.50;;;12.00;99.90;;;;;;5028486;28;20414;-71
2022/09/13 03:42:05;;;;;;;3.33;3.03;;;12.00;99.90;;;;;;5034135;28;20432;-71
2022/09/13 03:44:32;;;;;;;2.53;2.43;;;12.00;99.90;;;;;;5034443;28;20475;-72
2022/09/13 03:47:02;;;;;;;3.50;3.20;;;11.90;99.90;;;;;;5018183;28;20469;-72
2022/09/13 03:49:29;;;;;;;4.07;2.20;;;11.90;99.90;;;;;;4994019;28;20492;-72
2022/09/13 03:51:56;;;;;;;4.90;2.80;;;11.90;99.90;;;;;;4999720;28;20453;-72
2022/09/13 03:54:28;;;;;;;6.07;2.40;;;11.90;99.90;;;;;;5014122;28;20497;-74
2022/09/13 03:57:10;;;;;;;3.20;2.87;;;11.90;99.90;;;;;;5018888;28;20442;-72
2022/09/13 03:59:38;;;;;;;5.60;2.57;;;11.90;99.90;;;;;;4994537;28;20420;-72
2022/09/13 04:02:05;;;;;;;3.23;2.93;;;11.90;99.90;;;;;;5012820;28;20509;-72
2022/09/13 04:04:31;;;;;;;3.63;2.50;;;11.80;99.90;;;;;;5033703;28;20428;-72
2022/09/13 04:06:59;;;;;;;4.83;2.80;;;11.80;99.90;;;;;;5026276;28;20492;-72
2022/09/13 04:09:25;;;;;;;3.17;2.23;;;11.80;99.90;;;;;;5027942;28;20746;-72
2022/09/13 04:11:50;;;;;;;7.10;2.57;;;11.80;99.90;;;;;;5026856;28;20457;-72
2022/09/13 04:14:15;;;;;;;4.97;2.83;;;11.80;99.90;;;;;;5033512;28;20183;-72
2022/09/13 04:16:41;;;;;;;3.47;2.80;;;11.80;99.90;;;;;;5033247;28;20261;-72
2022/09/13 04:19:07;;;;;;;6.23;2.50;;;11.80;99.90;;;;;;5033460;28;20186;-72
2022/09/13 04:21:32;;;;;;;3.90;2.80;;;11.80;99.90;;;;;;5019744;28;20207;-73
2022/09/13 04:23:58;;;;;;;3.93;3.00;;;11.80;99.90;;;;;;5025137;28;20540;-74
2022/09/13 04:26:23;;;;;;;3.70;2.87;;;11.70;99.90;;;;;;5033294;28;20213;-72
2022/09/13 04:28:51;;;;;;;7.33;2.90;;;11.70;99.90;;;;;;5027418;28;20681;-73
2022/09/13 04:31:16;;;;;;;4.43;2.90;;;11.80;99.90;;;;;;5033231;28;20631;-73
2022/09/13 04:33:42;;;;;;;5.67;2.83;;;11.80;99.90;;;;;;5007024;28;20749;-72
2022/09/13 04:36:07;;;;;;;5.67;2.67;;;11.70;99.90;;;;;;5013487;28;20179;-73
2022/09/13 04:38:33;;;;;;;2.83;2.50;;;11.80;99.90;;;;;;5014494;28;20268;-72
2022/09/13 04:40:58;;;;;;;4.93;3.10;;;11.80;99.90;;;;;;5032873;28;20681;-71
2022/09/13 04:43:24;;;;;;;6.87;3.80;;;11.90;99.90;;;;;;5028652;28;20236;-71
2022/09/13 04:45:50;;;;;;;3.50;3.20;;;11.90;99.90;;;;;;5022948;28;20698;-73
2022/09/13 04:48:16;;;;;;;3.90;3.03;;;12.00;99.90;;;;;;5030240;28;20177;-72
2022/09/13 04:50:42;;;;;;;3.50;3.10;;;12.10;99.90;;;;;;5032378;28;20456;-73
2022/09/13 04:53:07;;;;;;;4.20;2.87;;;12.10;99.90;;;;;;5012402;28;20465;-72
2022/09/13 04:55:35;;;;;;;9.80;3.10;;;12.20;99.90;;;;;;5026244;28;20201;-74
2022/09/13 04:58:01;;;;;;;3.80;3.40;;;12.20;99.90;;;;;;5032253;28;20181;-74
2022/09/13 05:00:27;;;;;;;4.40;3.17;;;12.30;99.90;;;;;;5027493;28;21141;-74
2022/09/13 05:02:55;;;;;;;3.87;3.03;;;12.40;99.90;;;;;;5032117;28;20190;-74
2022/09/13 05:05:22;;;;;;;4.23;2.90;;;12.40;99.90;;;;;;5032030;28;20182;-74
2022/09/13 05:07:51;;;;;;;7.33;2.90;;;12.40;99.90;;;;;;5020276;28;20446;-74
2022/09/13 05:10:17;;;;;;;4.67;2.87;;;12.50;99.90;;;;;;5025735;28;20438;-73
2022/09/13 05:12:43;;;;;;;3.33;3.03;;;12.50;99.90;;;;;;5028596;28;20808;-74
2022/09/13 05:15:10;;;;;;;11.57;3.00;;;12.60;99.90;;;;;;5023896;28;20436;-73
2022/09/13 05:17:36;;;;;;;4.47;3.20;;;12.60;99.90;;;;;;5031991;28;20166;-74
2022/09/13 05:20:04;;;;;;;4.43;3.00;;;12.70;99.90;;;;;;5032238;28;20416;-74
2022/09/13 05:22:29;;;;;;;3.37;2.90;;;12.70;99.90;;;;;;5010951;28;20210;-73
2022/09/13 05:24:55;;;;;;;2.93;2.50;;;12.70;99.90;;;;;;5008719;28;20441;-73
2022/09/13 05:27:21;;;;;;;4.63;3.03;;;12.80;99.90;;;;;;5028258;28;20255;-73
2022/09/13 05:29:46;;;;;;;4.13;3.07;;;12.80;99.90;;;;;;5026688;28;20442;-74
2022/09/13 05:32:12;;;;;;;2.90;2.33;;;12.80;99.90;;;;;;5029543;28;20225;-73
2022/09/13 05:34:37;;;;;;;4.17;3.20;;;12.90;99.90;;;;;;5031951;28;20181;-74
2022/09/13 05:37:03;;;;;;;3.37;3.07;;;13.00;99.90;;;;;;5020249;28;20251;-74
2022/09/13 05:39:28;;;;;;;3.23;3.00;;;13.00;99.90;;;;;;5011441;28;20236;-74
2022/09/13 05:41:54;;;;;;;11.33;3.90;;;13.10;99.90;;;;;;4995630;28;20286;-74
2022/09/13 05:44:19;;;;;;;4.10;3.17;;;13.20;99.90;;;;;;4994572;28;20191;-73
2022/09/13 05:46:48;;;;;;;3.97;3.27;;;13.20;99.90;;;;;;5015004;28;20269;-73
2022/09/13 05:49:14;;;;;;;5.40;3.57;;;13.30;99.90;;;;;;5011984;28;20193;-74
2022/09/13 05:51:39;;;;;;;2.77;2.53;;;13.40;99.90;;;;;;5007022;28;20481;-74
2022/09/13 05:54:05;;;;;;;6.27;3.73;;;13.50;99.90;;;;;;5032062;28;20589;-74
2022/09/13 05:56:31;;;;;;;3.80;3.20;;;13.60;99.90;;;;;;5028555;28;20222;-73
2022/09/13 05:58:57;;;;;;;6.80;2.87;;;13.80;99.90;;;;;;5025703;28;20188;-74
2022/09/13 06:01:25;;;;;;;5.13;3.10;;;13.90;99.90;;;;;;5031206;28;20233;-74
2022/09/13 06:03:54;;;;;;;2.50;2.30;;;14.10;99.90;;;;;;5031918;28;20408;-74
2022/09/13 06:06:20;;;;;;;6.30;3.23;;;14.30;99.90;;;;;;5026715;28;20459;-74
2022/09/13 06:08:46;;;;;;;4.33;3.50;;;14.60;99.90;;;;;;5003090;28;20467;-74
2022/09/13 06:11:13;;;;;;;4.13;3.57;;;14.80;99.90;;;;;;4991791;28;20445;-74
2022/09/13 06:13:40;;;;;;;4.53;3.07;;;15.20;99.90;;;;;;4992323;28;20473;-74
2022/09/13 06:16:08;;;;;;;6.30;3.53;;;15.60;99.90;;;;;;4992361;28;20411;-74
2022/09/13 06:18:34;;;;;;;5.73;3.23;;;16.10;99.90;;;;;;5000398;28;20436;-74
2022/09/13 06:21:03;;;;;;;6.30;3.33;;;16.30;99.90;;;;;;5031458;28;20432;-74
2022/09/13 06:23:29;;;;;;;3.87;3.50;;;16.50;99.90;;;;;;4997828;28;20446;-74
2022/09/13 06:26:09;;;;;;;3.90;2.93;;;16.50;99.90;;;;;;4992435;28;20980;-74
2022/09/13 06:28:35;;;;;;;9.57;3.47;;;16.40;99.90;;;;;;4992171;28;20174;-74
2022/09/13 06:31:10;;;;;;;4.10;3.00;;;16.20;99.90;;;;;;4991997;28;20470;-74
2022/09/13 06:33:38;;;;;;;6.10;3.77;;;16.00;99.90;;;;;;5026676;28;20498;-74
2022/09/13 06:36:06;;;;;;;7.10;3.80;;;16.00;99.90;;;;;;5030253;28;20449;-74
2022/09/13 06:38:31;;;;;;;5.97;3.50;;;15.80;99.90;;;;;;5008499;28;20436;-74
2022/09/13 06:41:05;;;;;;;5.57;4.40;;;15.80;99.90;;;;;;5035241;28;20817;-73
2022/09/13 06:43:31;;;;;;;3.87;3.50;;;16.10;99.90;;;;;;5035086;28;20178;-73
2022/09/13 06:46:05;;;;;;;5.50;4.20;;;17.20;99.90;;;;;;5018943;28;20464;-74
2022/09/13 06:48:39;;;;;;;9.10;4.10;;;18.50;99.90;;;;;;5026852;28;20957;-74
2022/09/13 06:51:08;;;;;;;6.53;3.30;;;19.60;99.90;;;;;;5015111;28;20434;-74
2022/09/13 06:53:35;;;;;;;7.70;4.30;;;20.40;99.90;;;;;;5002540;28;20440;-74
2022/09/13 06:56:13;;;;;;;8.10;3.50;;;20.70;99.90;;;;;;5005464;28;20453;-75
2022/09/13 06:58:41;;;;;;;4.10;3.10;;;21.00;99.90;;;;;;4995680;28;20777;-74
2022/09/13 07:01:12;;;;;;;3.33;3.03;;;21.10;99.90;;;;;;4995342;28;20440;-74
2022/09/13 07:03:39;;;;;;;3.20;2.90;;;21.20;99.90;;;;;;4995755;28;20442;-74
2022/09/13 07:06:28;;;;;;;4.17;2.60;;;21.20;99.90;;;;;;5016775;28;20460;-74
2022/09/13 07:08:55;;;;;;;3.90;2.10;;;21.60;99.90;;;;;;5028721;28;20452;-74
2022/09/13 07:11:23;;;;;;;3.57;2.40;;;22.10;99.90;;;;;;5030852;28;20440;-74
2022/09/13 07:13:53;;;;;;;2.77;2.57;;;22.40;99.90;;;;;;5034632;28;20416;-74
2022/09/13 07:16:21;;;;;;;4.60;2.40;;;22.10;99.90;;;;;;5034360;28;20437;-75
2022/09/13 07:18:55;;;;;;;4.43;3.47;;;21.60;99.90;;;;;;5030724;28;20439;-74
2022/09/13 07:21:21;;;;;;;3.93;2.70;;;21.40;99.90;;;;;;5012490;28;20564;-74
2022/09/13 07:23:47;;;;;;;5.60;2.87;;;21.30;99.90;;;;;;5013386;28;20508;-74
2022/09/13 07:26:14;;;;;;;3.00;2.80;;;21.30;99.90;;;;;;5014368;28;20556;-74
2022/09/13 07:28:42;;;;;;;6.70;3.30;;;21.20;99.90;;;;;;5014596;28;20406;-74
2022/09/13 07:31:10;;;;;;;6.40;3.13;;;21.10;99.90;;;;;;5013955;28;20872;-74
2022/09/13 07:33:37;;;;;;;5.43;2.87;;;20.70;99.90;;;;;;5015976;28;20845;-75
2022/09/13 07:36:05;;;;;;;7.13;2.90;;;20.60;99.90;;;;;;5014377;28;20453;-74
2022/09/13 07:38:32;;;;;;;9.30;3.30;;;21.20;99.90;;;;;;5026554;28;20819;-75
2022/09/13 07:40:58;;;;;;;3.23;2.77;;;21.40;99.90;;;;;;5027386;28;20460;-74
2022/09/13 07:43:24;;;;;;;3.50;2.90;;;21.40;99.90;;;;;;5033207;28;20409;-75
2022/09/13 07:46:23;;;;;;;4.93;2.73;;;21.60;99.90;;;;;;5020904;28;20214;-75
2022/09/13 07:48:52;;;;;;;4.50;2.50;;;22.10;99.90;;;;;;5011155;28;20456;-74
2022/09/13 07:51:24;;;;;;;3.57;3.03;;;22.70;99.90;;;;;;5020029;28;20494;-74
2022/09/13 07:53:51;;;;;;;9.20;3.17;;;23.40;99.90;;;;;;5028252;28;20813;-74
2022/09/13 07:56:19;;;;;;;5.60;2.47;;;24.20;99.90;;;;;;5033697;28;20466;-74
2022/09/13 07:58:46;;;;;;;4.93;2.60;;;24.70;99.90;;;;;;5029674;28;20928;-74
2022/09/13 08:01:26;;;;;;;3.17;2.80;;;24.80;99.90;;;;;;5021050;28;20457;-75
2022/09/13 08:03:56;;;;;;;4.20;2.90;;;24.90;99.90;;;;;;4994298;28;20398;-74
2022/09/13 08:06:23;;;;;;;4.57;3.07;;;24.80;99.90;;;;;;4994862;28;20461;-74
2022/09/13 08:08:49;;;;;;;3.70;2.63;;;24.70;99.90;;;;;;5027238;28;20470;-75
2022/09/13 08:11:24;;;;;;;5.50;3.00;;;24.50;99.90;;;;;;5032478;28;20583;-72
2022/09/13 08:13:51;;;;;;;6.30;2.50;;;24.40;99.90;;;;;;5026444;28;20189;-74
2022/09/13 08:16:21;;;;;;;11.10;2.77;;;24.30;99.90;;;;;;5033420;28;20417;-74
2022/09/13 08:18:49;;;;;;;9.30;2.80;;;24.10;99.90;;;;;;4995853;28;20470;-75
2022/09/13 08:21:15;;;;;;;6.60;2.63;;;24.00;99.90;;;;;;4993787;28;20434;-74
2022/09/13 08:23:41;;;;;;;3.80;2.60;;;24.00;99.90;;;;;;5019776;28;20486;-74
2022/09/13 08:26:08;;;;;;;5.53;2.67;;;23.90;99.90;;;;;;5033680;28;20216;-75
2022/09/13 08:28:35;;;;;;;6.13;3.20;;;23.70;99.90;;;;;;5026861;28;20442;-74
2022/09/13 08:31:09;;;;;;;10.80;2.90;;;23.90;99.90;;;;;;5032836;28;20515;-74
2022/09/13 08:33:36;;;;;;;4.87;2.50;;;24.10;99.90;;;;;;5024084;28;20451;-74
2022/09/13 08:36:02;;;;;;;3.40;2.27;;;24.30;99.90;;;;;;5013349;28;20417;-72
2022/09/13 08:38:28;;;;;;;5.43;3.03;;;24.40;99.90;;;;;;5024587;28;20952;-72
2022/09/13 08:40:56;;;;;;;10.00;3.10;;;25.00;99.90;;;;;;5032740;28;20434;-73
2022/09/13 08:43:46;;;;;;;3.77;2.50;;;25.50;99.90;;;;;;5022927;28;20703;-74
2022/09/13 08:46:34;;;;;;;6.23;3.03;;;25.70;99.90;;;;;;5017990;28;20500;-73
2022/09/13 08:49:25;;;;;;;7.53;3.20;;;25.70;99.90;;;;;;5025018;28;20514;-74
2022/09/13 08:51:54;;;;;;;4.03;2.60;;;25.70;99.90;;;;;;5022394;28;20822;-73
2022/09/13 08:54:20;;;;;;;4.07;2.00;;;25.90;99.90;;;;;;5032301;28;20515;-73
2022/09/13 08:57:18;;;;;;;4.20;2.60;;;26.10;99.90;;;;;;5032476;28;20515;-74
2022/09/13 08:59:58;;;;;;;4.63;2.50;;;26.00;99.90;;;;;;5023469;28;20201;-73
2022/09/13 09:03:08;;;;;;;10.67;2.70;;;26.30;99.90;;;;;;5030876;28;20428;-75
2022/09/13 09:05:46;;;;;;;3.03;2.23;;;26.40;99.90;;;;;;5022295;28;20443;-73
2022/09/13 09:08:39;;;;;;;4.00;3.03;;;26.50;99.90;;;;;;5020807;28;20446;-73
2022/09/13 09:11:13;;;;;;;5.40;2.83;;;27.40;99.90;;;;;;5012502;28;20426;-73
2022/09/13 09:14:02;;;;;;;5.70;2.70;;;27.50;99.90;;;;;;5012549;28;21027;-73
2022/09/13 09:16:46;;;;;;;5.53;2.10;;;27.50;99.90;;;;;;5025803;28;20455;-73
2022/09/13 09:19:21;;;;;;;3.60;3.03;;;26.90;99.90;;;;;;5031175;28;20416;-72
2022/09/13 09:21:50;;;;;;;7.00;2.10;;;27.10;99.90;;;;;;4991712;28;20450;-73
2022/09/13 09:24:20;;;;;;;2.63;2.23;;;27.50;99.90;;;;;;4993027;28;20426;-74
2022/09/13 09:26:46;;;;;;;3.53;2.50;;;27.60;99.90;;;;;;4993284;28;20548;-74
2022/09/13 09:29:21;;;;;;;3.30;3.00;;;27.50;99.90;;;;;;4992912;28;20895;-74
2022/09/13 09:32:24;;;;;;;5.97;2.33;;;27.40;99.90;;;;;;4992963;28;20617;-74
2022/09/13 09:35:16;;;;;;;6.40;2.40;;;27.40;99.90;;;;;;4992641;28;20422;-74
2022/09/13 09:37:45;;;;;;;3.57;2.60;;;28.30;99.90;;;;;;4992973;28;20421;-75
2022/09/13 09:40:15;;;;;;;9.20;2.80;;;28.40;99.90;;;;;;4992301;28;20923;-73
2022/09/13 09:42:44;;;;;;;12.57;3.03;;;28.60;99.90;;;;;;4992403;28;20834;-74
2022/09/13 09:45:25;;;;;;;5.80;3.17;;;28.70;99.90;;;;;;4992841;28;20427;-74
2022/09/13 09:47:52;;;;;;;4.00;2.07;;;29.00;99.90;;;;;;4992452;28;20505;-74
2022/09/13 09:50:24;;;;;;;4.23;2.53;;;28.90;99.90;;;;;;4992502;28;20521;-74
2022/09/13 09:53:32;;;;;;;7.10;2.60;;;28.30;99.90;;;;;;4992478;28;20931;-74
2022/09/13 09:56:14;;;;;;;4.27;3.03;;;27.90;99.90;;;;;;4991211;28;20462;-74
2022/09/13 09:58:42;;;;;;;11.10;3.30;;;27.30;99.90;;;;;;4992397;28;20488;-74
2022/09/13 10:01:28;;;;;;;3.33;2.53;;;27.10;99.90;;;;;;4992021;28;20488;-74
2022/09/13 10:04:18;;;;;;;8.93;2.43;;;27.10;99.90;;;;;;4992455;28;20911;-74
2022/09/13 10:06:45;;;;;;;6.00;2.20;;;27.30;99.90;;;;;;4992310;28;20469;-74
2022/09/13 10:09:13;;;;;;;2.37;2.17;;;27.40;99.90;;;;;;4996003;28;20497;-75
2022/09/13 10:11:51;;;;;;;3.73;2.13;;;27.60;99.90;;;;;;4996327;28;20811;-74
2022/09/13 10:14:29;;;;;;;5.13;2.50;;;27.70;99.90;;;;;;4996186;28;20922;-74
2022/09/13 10:17:14;;;;;;;2.70;1.73;;;28.10;99.90;;;;;;4994926;28;20423;-73
2022/09/13 10:19:40;;;;;;;3.63;1.73;;;28.20;99.90;;;;;;4996266;28;20889;-74
2022/09/13 10:22:11;;;;;;;2.03;1.60;;;28.50;99.90;;;;;;4995755;28;20776;-74
2022/09/13 10:24:38;;;;;;;1.80;1.40;;;28.70;99.90;;;;;;4996315;28;20969;-74
2022/09/13 10:27:17;;;;;;;10.43;1.93;;;29.50;99.90;;;;;;4996102;28;20465;-74
2022/09/13 10:29:47;;;;;;;8.73;1.63;;;30.00;99.90;;;;;;4996168;28;20447;-74
2022/09/13 10:32:15;;;;;;;3.30;1.27;;;30.70;99.90;;;;;;4995588;28;20449;-74
2022/09/13 10:34:44;;;;;;;1.63;1.50;;;31.10;99.90;;;;;;4996020;28;20501;-74
2022/09/13 10:37:21;;;;;;;3.40;1.50;;;31.10;99.90;;;;;;4996109;28;20998;-74
2022/09/13 10:39:56;;;;;;;3.50;1.47;;;31.00;99.90;;;;;;4996015;28;20410;-74
2022/09/13 10:42:25;;;;;;;3.37;1.30;;;30.60;99.90;;;;;;4995433;28;20438;-74
2022/09/13 10:45:04;;;;;;;2.03;1.17;;;30.60;99.90;;;;;;4996324;28;20933;-74
2022/09/13 10:48:11;;;;;;;2.17;1.20;;;30.30;99.90;;;;;;4995802;28;20445;-74
2022/09/13 10:50:36;;;;;;;1.30;1.20;;;30.20;99.90;;;;;;4992759;28;20797;-73
2022/09/13 10:53:04;;;;;;;2.33;1.40;;;30.40;99.90;;;;;;4995520;28;20417;-74
2022/09/13 10:55:32;;;;;;;1.73;0.80;;;30.60;99.90;;;;;;4995532;28;20564;-74
2022/09/13 10:58:00;;;;;;;0.97;0.60;;;30.90;99.90;;;;;;4995447;28;20965;-74
2022/09/13 11:00:42;;;;;;;0.97;0.87;;;31.20;97.30;;;;;;4995565;28;20762;-74
2022/09/13 11:03:39;;;;;;;0.80;0.80;;;31.60;97.60;;;;;;4995169;28;20405;-74
2022/09/13 11:06:35;;;;;;;2.70;0.87;;;31.90;95.70;;;;;;4995437;28;20508;-75
2022/09/13 11:09:10;;;;;;;1.10;0.90;;;31.70;95.60;;;;;;4995253;28;20500;-74
2022/09/13 11:12:06;;;;;;;0.90;0.90;;;31.30;98.00;;;;;;4995141;28;21005;-74
2022/09/13 11:14:57;;;;;;;2.60;0.80;;;31.10;96.90;;;;;;4995108;28;20919;-74
2022/09/13 11:17:32;;;;;;;1.20;0.70;;;30.70;98.30;;;;;;4995206;28;20402;-74
2022/09/13 11:20:16;;;;;;;1.10;1.00;;;30.60;97.50;;;;;;4995025;28;20825;-74
2022/09/13 11:22:55;;;;;;;1.00;0.90;;;30.40;97.00;;;;;;4994903;28;20426;-74
2022/09/13 11:25:52;;;;;;;1.10;0.93;;;30.30;97.90;;;;;;4994989;28;20490;-74
2022/09/13 11:28:23;;;;;;;0.80;0.80;;;30.20;97.20;;;;;;4991524;28;20462;-75
2022/09/13 11:30:49;;;;;;;5.57;1.20;;;30.30;97.60;;;;;;4994694;28;20403;-75
2022/09/13 11:33:43;;;;;;;1.10;1.10;;;30.30;98.00;;;;;;4994531;28;20418;-74
2022/09/13 11:36:42;;;;;;;5.63;1.20;;;30.00;97.50;;;;;;4989733;28;20577;-74
2022/09/13 11:39:37;;;;;;;4.50;2.07;;;29.60;97.30;;;;;;4994630;28;20419;-74
2022/09/13 11:42:08;;;;;;;1.17;1.07;;;29.60;98.70;;;;;;4994675;28;20440;-75
2022/09/13 11:45:12;;;;;;;0.97;0.93;;;29.50;97.60;;;;;;4994576;28;20572;-74
2022/09/13 11:47:47;;;;;;;0.90;0.90;;;29.30;98.50;;;;;;4994495;28;20457;-74
2022/09/13 11:50:22;;;;;;;1.03;0.80;;;29.40;99.70;;;;;;4994372;28;20426;-74
2022/09/13 11:53:26;;;;;;;1.07;0.90;;;29.30;99.90;;;;;;4994310;28;20426;-74
2022/09/13 11:55:57;;;;;;;1.57;1.10;;;29.30;97.50;;;;;;4994390;28;20488;-74
2022/09/13 11:58:38;;;;;;;1.20;1.10;;;29.50;97.60;;;;;;4994322;28;20418;-74
2022/09/13 12:01:09;;;;;;;2.83;1.07;;;29.60;97.80;;;;;;4994311;28;20484;-75
2022/09/13 12:03:50;;;;;;;1.10;1.10;;;29.50;97.70;;;;;;4994226;28;20970;-74
2022/09/13 12:06:24;;;;;;;1.90;0.90;;;29.70;99.50;;;;;;4993934;28;20989;-75
2022/09/13 12:08:55;;;;;;;1.30;0.80;;;30.00;98.90;;;;;;4994238;28;20863;-75
2022/09/13 12:11:26;;;;;;;2.97;0.90;;;30.30;98.10;;;;;;4993768;28;20469;-75
2022/09/13 12:13:59;;;;;;;1.63;0.90;;;30.50;97.50;;;;;;4994209;28;20461;-74
2022/09/13 12:16:30;;;;;;;1.23;1.13;;;30.80;96.70;;;;;;4994016;28;20477;-75
2022/09/13 12:19:01;;;;;;;1.10;0.90;;;30.80;97.80;;;;;;4993966;28;20421;-74
2022/09/13 12:21:32;;;;;;;2.70;1.13;;;30.90;95.80;;;;;;4993603;28;20434;-75
2022/09/13 12:24:40;;;;;;;1.63;0.90;;;30.80;94.80;;;;;;4993979;28;20506;-75
2022/09/13 12:27:20;;;;;;;3.17;1.23;;;30.20;94.70;;;;;;4987976;28;20465;-75
2022/09/13 12:29:51;;;;;;;1.03;1.00;;;29.70;94.30;;;;;;4993269;28;20419;-75
2022/09/13 12:32:18;;;;;;;1.90;0.90;;;29.40;95.00;;;;;;4993228;28;20588;-74
2022/09/13 12:34:50;;;;;;;0.93;0.90;;;29.60;96.40;;;;;;4994017;28;20760;-74
2022/09/13 12:37:49;;;;;;;3.43;0.93;;;29.50;95.40;;;;;;4993483;28;20430;-76
2022/09/13 12:40:50;;;;;;;3.80;1.20;;;29.60;96.00;;;;;;4993457;28;20410;-75
2022/09/13 12:43:42;;;;;;;2.00;1.20;;;29.70;95.80;;;;;;4971320;28;20427;-74
2022/09/13 12:46:29;;;;;;;4.23;1.00;;;29.70;95.90;;;;;;4992831;28;20975;-74
2022/09/13 12:49:33;;;;;;;2.13;1.00;;;29.80;95.80;;;;;;4993661;28;20784;-75
2022/09/13 12:52:10;;;;;;;1.10;1.10;;;29.80;95.30;;;;;;4993192;28;20537;-74
2022/09/13 12:54:48;;;;;;;1.20;0.93;;;29.60;95.80;;;;;;4993496;28;20480;-74
2022/09/13 12:57:38;;;;;;;1.67;0.93;;;29.60;96.30;;;;;;4993321;28;20552;-74
2022/09/13 13:00:29;;;;;;;3.00;1.00;;;29.50;95.90;;;;;;4993360;28;20415;-75
2022/09/13 13:03:10;;;;;;;3.40;1.10;;;29.30;95.70;;;;;;4993036;28;21022;-75
2022/09/13 13:05:49;;;;;;;1.23;0.80;;;29.20;95.80;;;;;;4993233;28;20430;-76
2022/09/13 13:08:20;;;;;;;1.50;0.90;;;29.30;96.20;;;;;;4992782;28;20415;-76
2022/09/13 13:11:09;;;;;;;7.93;1.13;;;29.40;96.40;;;;;;4993297;28;20423;-74
2022/09/13 13:13:38;;;;;;;3.13;1.13;;;29.60;96.00;;;;;;4992840;28;20419;-75
2022/09/13 13:16:24;;;;;;;0.93;0.87;;;29.50;95.20;;;;;;4993076;28;20421;-75
2022/09/13 13:18:52;;;;;;;2.33;1.23;;;29.50;95.20;;;;;;4992553;28;20434;-75
2022/09/13 13:21:26;;;;;;;3.80;1.37;;;29.50;94.80;;;;;;4992831;28;20434;-75
2022/09/13 13:24:14;;;;;;;2.83;0.93;;;29.50;95.20;;;;;;4992856;28;20920;-75
2022/09/13 13:26:50;;;;;;;1.03;0.90;;;29.30;94.00;;;;;;4993299;28;20462;-75
2022/09/13 13:29:28;;;;;;;3.80;0.97;;;29.30;94.40;;;;;;4992758;28;20946;-75
2022/09/13 13:32:01;;;;;;;2.00;0.90;;;29.20;94.00;;;;;;4992728;28;20458;-75
2022/09/13 13:34:40;;;;;;;5.90;1.20;;;29.30;93.40;;;;;;4992832;28;20430;-75
2022/09/13 13:37:09;;;;;;;1.93;1.60;;;29.30;94.20;;;;;;4992894;28;20418;-75
2022/09/13 13:39:41;;;;;;;1.80;1.33;;;29.40;93.50;;;;;;4992439;28;20449;-74
2022/09/13 13:42:23;;;;;;;10.83;1.20;;;29.50;93.40;;;;;;4992476;28;20434;-74
2022/09/13 13:44:51;;;;;;;0.80;0.80;;;29.20;92.30;;;;;;4992626;28;20414;-74
2022/09/13 13:47:16;;;;;;;1.10;0.97;;;29.30;92.70;;;;;;4992340;28;20461;-75
2022/09/13 13:50:14;;;;;;;1.03;0.70;;;29.30;92.70;;;;;;4992334;28;20419;-74
2022/09/13 13:52:51;;;;;;;1.10;0.97;;;29.10;91.90;;;;;;4992354;28;20200;-74
2022/09/13 13:55:38;;;;;;;1.83;0.80;;;29.00;92.30;;;;;;4992533;28;20445;-74
2022/09/13 13:58:41;;;;;;;2.93;0.80;;;28.90;92.40;;;;;;4992389;28;20422;-74
2022/09/13 14:01:17;;;;;;;2.70;1.10;;;28.80;91.40;;;;;;4974115;28;20446;-74
2022/09/13 14:04:17;;;;;;;1.77;0.80;;;28.80;91.60;;;;;;4992219;28;20414;-74
2022/09/13 14:06:55;;;;;;;1.23;0.70;;;28.90;91.30;;;;;;4992329;28;20522;-74
2022/09/13 14:09:47;;;;;;;1.13;0.97;;;28.70;92.40;;;;;;4992103;28;20426;-74
2022/09/13 14:12:12;;;;;;;1.33;0.80;;;28.70;92.20;;;;;;4991761;28;20441;-75
2022/09/13 14:14:48;;;;;;;0.67;0.63;;;28.70;91.90;;;;;;4992178;28;20410;-74
2022/09/13 14:17:45;;;;;;;3.70;0.80;;;28.60;88.80;;;;;;4992218;28;20181;-74
2022/09/13 14:20:15;;;;;;;1.20;0.80;;;28.70;87.60;;;;;;4992391;28;20446;-75
2022/09/13 14:22:40;;;;;;;0.90;0.80;;;28.70;88.00;;;;;;4991895;28;20481;-76
2022/09/13 14:25:18;;;;;;;3.67;0.60;;;28.70;90.50;;;;;;4992432;28;20461;-74
2022/09/13 14:27:45;;;;;;;6.33;0.67;;;28.80;88.80;;;;;;4992293;28;20232;-75
2022/09/13 14:30:18;;;;;;;1.13;0.70;;;28.70;86.70;;;;;;4992164;28;20437;-73
2022/09/13 14:32:46;;;;;;;1.53;0.70;;;28.60;87.00;;;;;;4991916;28;20500;-74
2022/09/13 14:35:22;;;;;;;2.73;0.60;;;28.60;89.20;;;;;;4992036;28;20415;-74
2022/09/13 14:37:48;;;;;;;0.60;0.60;;;28.70;87.80;;;;;;4992431;28;20458;-75
2022/09/13 14:40:37;;;;;;;6.97;5.70;;;28.80;90.20;;;;;;4992109;28;21051;-74
2022/09/13 14:43:14;;;;;;;1.93;1.47;;;29.00;90.20;;;;;;4991943;28;20250;-74
2022/09/13 14:45:42;;;;;;;1.40;0.70;;;29.00;90.50;;;;;;4992035;28;20784;-74
2022/09/13 14:48:38;;;;;;;0.80;0.80;;;29.00;90.30;;;;;;4991716;28;20421;-74
2022/09/13 14:51:16;;;;;;;1.67;0.70;;;28.90;89.00;;;;;;4991933;28;20438;-75